sensor_id;sensor_type;location;lat;lon;timestamp;pressure;altitude;pressure_sealevel;temperature
10598;BMP180;5346;48.766;8.674;2023-05-13T00:02:19;94033.00;;;8.70
10598;BMP180;5346;48.766;8.674;2023-05-13T00:04:53;94012.00;;;8.80
10598;BMP180;5346;48.766;8.674;2023-05-13T00:07:34;94040.00;;;8.60
10598;BMP180;5346;48.766;8.674;2023-05-13T00:10:08;94041.00;;;8.50
10598;BMP180;5346;48.766;8.674;2023-05-13T00:12:45;94031.00;;;8.60
10598;BMP180;5346;48.766;8.674;2023-05-13T00:15:13;94022.00;;;8.70
10598;BMP180;5346;48.766;8.674;2023-05-13T00:17:46;94002.00;;;8.70
10598;BMP180;5346;48.766;8.674;2023-05-13T00:20:19;94034.00;;;8.60
10598;BMP180;5346;48.766;8.674;2023-05-13T00:22:53;94044.00;;;8.60
10598;BMP180;5346;48.766;8.674;2023-05-13T00:25:20;94004.00;;;8.80
10598;BMP180;5346;48.766;8.674;2023-05-13T00:27:54;94042.00;;;8.80
10598;BMP180;5346;48.766;8.674;2023-05-13T00:30:28;94011.00;;;8.90
10598;BMP180;5346;48.766;8.674;2023-05-13T00:33:02;94014.00;;;8.80
10598;BMP180;5346;48.766;8.674;2023-05-13T00:35:36;94015.00;;;8.80
10598;BMP180;5346;48.766;8.674;2023-05-13T00:38:03;94033.00;;;8.70
10598;BMP180;5346;48.766;8.674;2023-05-13T00:40:38;94042.00;;;8.60
10598;BMP180;5346;48.766;8.674;2023-05-13T00:43:05;94020.00;;;8.70
10598;BMP180;5346;48.766;8.674;2023-05-13T00:45:39;94026.00;;;8.60
10598;BMP180;5346;48.766;8.674;2023-05-13T00:48:13;94040.00;;;8.50
10598;BMP180;5346;48.766;8.674;2023-05-13T00:50:48;94014.00;;;8.30
10598;BMP180;5346;48.766;8.674;2023-05-13T00:53:21;94034.00;;;8.10
10598;BMP180;5346;48.766;8.674;2023-05-13T00:55:49;94007.00;;;7.90
10598;BMP180;5346;48.766;8.674;2023-05-13T00:58:22;94017.00;;;7.80
10598;BMP180;5346;48.766;8.674;2023-05-13T01:04:43;94033.00;;;7.80
10598;BMP180;5346;48.766;8.674;2023-05-13T01:07:25;94033.00;;;7.80
10598;BMP180;5346;48.766;8.674;2023-05-13T01:10:21;94007.00;;;7.90
10598;BMP180;5346;48.766;8.674;2023-05-13T01:12:55;94035.00;;;8.00
10598;BMP180;5346;48.766;8.674;2023-05-13T01:15:31;93981.00;;;8.10
10598;BMP180;5346;48.766;8.674;2023-05-13T01:18:09;94036.00;;;8.00
10598;BMP180;5346;48.766;8.674;2023-05-13T01:20:45;94029.00;;;8.10
10598;BMP180;5346;48.766;8.674;2023-05-13T01:23:13;94017.00;;;8.10
10598;BMP180;5346;48.766;8.674;2023-05-13T01:25:46;94027.00;;;8.20
10598;BMP180;5346;48.766;8.674;2023-05-13T01:28:15;94028.00;;;8.20
10598;BMP180;5346;48.766;8.674;2023-05-13T01:30:49;94023.00;;;8.30
10598;BMP180;5346;48.766;8.674;2023-05-13T01:33:17;93999.00;;;8.40
10598;BMP180;5346;48.766;8.674;2023-05-13T01:35:51;94018.00;;;8.40
10598;BMP180;5346;48.766;8.674;2023-05-13T01:38:20;94033.00;;;8.50
10598;BMP180;5346;48.766;8.674;2023-05-13T01:40:55;94028.00;;;8.40
10598;BMP180;5346;48.766;8.674;2023-05-13T01:43:28;94044.00;;;8.20
10598;BMP180;5346;48.766;8.674;2023-05-13T01:45:56;94028.00;;;8.30
10598;BMP180;5346;48.766;8.674;2023-05-13T01:48:32;93991.00;;;8.30
10598;BMP180;5346;48.766;8.674;2023-05-13T01:50:59;93997.00;;;8.20
10598;BMP180;5346;48.766;8.674;2023-05-13T01:53:33;93996.00;;;8.30
10598;BMP180;5346;48.766;8.674;2023-05-13T01:56:10;94030.00;;;8.20
10598;BMP180;5346;48.766;8.674;2023-05-13T01:58:37;94025.00;;;8.20
10598;BMP180;5346;48.766;8.674;2023-05-13T02:01:11;94032.00;;;8.20
10598;BMP180;5346;48.766;8.674;2023-05-13T02:03:58;94039.00;;;8.10
10598;BMP180;5346;48.766;8.674;2023-05-13T02:06:31;94034.00;;;8.20
10598;BMP180;5346;48.766;8.674;2023-05-13T02:08:59;94040.00;;;8.10
10598;BMP180;5346;48.766;8.674;2023-05-13T02:11:32;94038.00;;;8.10
10598;BMP180;5346;48.766;8.674;2023-05-13T02:14:01;94033.00;;;8.20
10598;BMP180;5346;48.766;8.674;2023-05-13T02:16:30;94056.00;;;8.20
10598;BMP180;5346;48.766;8.674;2023-05-13T02:19:03;93998.00;;;8.20
10598;BMP180;5346;48.766;8.674;2023-05-13T02:21:31;94037.00;;;8.20
10598;BMP180;5346;48.766;8.674;2023-05-13T02:24:05;94032.00;;;8.20
10598;BMP180;5346;48.766;8.674;2023-05-13T02:26:38;94013.00;;;8.10
10598;BMP180;5346;48.766;8.674;2023-05-13T02:29:13;94024.00;;;8.30
10598;BMP180;5346;48.766;8.674;2023-05-13T02:31:40;94036.00;;;8.00
10598;BMP180;5346;48.766;8.674;2023-05-13T02:34:15;94015.00;;;8.30
10598;BMP180;5346;48.766;8.674;2023-05-13T02:36:42;94028.00;;;8.20
10598;BMP180;5346;48.766;8.674;2023-05-13T02:39:16;93996.00;;;8.00
10598;BMP180;5346;48.766;8.674;2023-05-13T02:41:43;94026.00;;;7.90
10598;BMP180;5346;48.766;8.674;2023-05-13T02:44:17;93996.00;;;7.70
10598;BMP180;5346;48.766;8.674;2023-05-13T02:46:44;94032.00;;;7.50
10598;BMP180;5346;48.766;8.674;2023-05-13T02:49:18;94041.00;;;7.30
10598;BMP180;5346;48.766;8.674;2023-05-13T02:51:51;94001.00;;;7.20
10598;BMP180;5346;48.766;8.674;2023-05-13T02:54:25;94033.00;;;7.10
10598;BMP180;5346;48.766;8.674;2023-05-13T02:56:52;94000.00;;;7.00
10598;BMP180;5346;48.766;8.674;2023-05-13T02:59:26;94017.00;;;7.00
10598;BMP180;5346;48.766;8.674;2023-05-13T03:01:53;94031.00;;;6.80
10598;BMP180;5346;48.766;8.674;2023-05-13T03:04:30;94042.00;;;6.70
10598;BMP180;5346;48.766;8.674;2023-05-13T03:07:10;93964.00;;;6.60
10598;BMP180;5346;48.766;8.674;2023-05-13T03:09:44;93989.00;;;6.50
10598;BMP180;5346;48.766;8.674;2023-05-13T03:12:11;94037.00;;;6.50
10598;BMP180;5346;48.766;8.674;2023-05-13T03:14:45;94037.00;;;6.50
10598;BMP180;5346;48.766;8.674;2023-05-13T03:17:12;94038.00;;;6.50
10598;BMP180;5346;48.766;8.674;2023-05-13T03:19:46;93998.00;;;6.60
10598;BMP180;5346;48.766;8.674;2023-05-13T03:22:13;93998.00;;;6.50
10598;BMP180;5346;48.766;8.674;2023-05-13T03:24:47;93954.00;;;6.20
10598;BMP180;5346;48.766;8.674;2023-05-13T03:27:14;94031.00;;;6.50
10598;BMP180;5346;48.766;8.674;2023-05-13T03:29:48;94023.00;;;6.40
10598;BMP180;5346;48.766;8.674;2023-05-13T03:32:15;94028.00;;;6.30
10598;BMP180;5346;48.766;8.674;2023-05-13T03:34:50;93961.00;;;6.20
10598;BMP180;5346;48.766;8.674;2023-05-13T03:37:24;94039.00;;;6.10
10598;BMP180;5346;48.766;8.674;2023-05-13T03:39:59;94039.00;;;6.10
10598;BMP180;5346;48.766;8.674;2023-05-13T03:42:26;94011.00;;;6.10
10598;BMP180;5346;48.766;8.674;2023-05-13T03:44:53;94005.00;;;6.10
10598;BMP180;5346;48.766;8.674;2023-05-13T03:47:29;94009.00;;;6.30
10598;BMP180;5346;48.766;8.674;2023-05-13T03:50:04;93991.00;;;6.30
10598;BMP180;5346;48.766;8.674;2023-05-13T03:52:38;94045.00;;;6.20
10598;BMP180;5346;48.766;8.674;2023-05-13T03:55:13;94029.00;;;6.20
10598;BMP180;5346;48.766;8.674;2023-05-13T03:57:48;94043.00;;;6.40
10598;BMP180;5346;48.766;8.674;2023-05-13T04:00:15;94006.00;;;6.30
10598;BMP180;5346;48.766;8.674;2023-05-13T04:02:56;94044.00;;;6.30
10598;BMP180;5346;48.766;8.674;2023-05-13T04:05:29;94009.00;;;6.30
10598;BMP180;5346;48.766;8.674;2023-05-13T04:08:04;94054.00;;;6.50
10598;BMP180;5346;48.766;8.674;2023-05-13T04:10:37;94012.00;;;6.40
10598;BMP180;5346;48.766;8.674;2023-05-13T04:13:05;94042.00;;;6.50
10598;BMP180;5346;48.766;8.674;2023-05-13T04:15:32;94054.00;;;6.60
10598;BMP180;5346;48.766;8.674;2023-05-13T04:18:09;94039.00;;;6.60
10598;BMP180;5346;48.766;8.674;2023-05-13T04:20:42;94017.00;;;6.70
10598;BMP180;5346;48.766;8.674;2023-05-13T04:23:09;94063.00;;;6.70
10598;BMP180;5346;48.766;8.674;2023-05-13T04:25:51;94009.00;;;6.80
10598;BMP180;5346;48.766;8.674;2023-05-13T04:28:19;94050.00;;;6.90
10598;BMP180;5346;48.766;8.674;2023-05-13T04:30:52;93988.00;;;6.90
10598;BMP180;5346;48.766;8.674;2023-05-13T04:33:20;94038.00;;;7.00
10598;BMP180;5346;48.766;8.674;2023-05-13T04:35:53;94041.00;;;7.00
10598;BMP180;5346;48.766;8.674;2023-05-13T04:38:20;94005.00;;;7.00
10598;BMP180;5346;48.766;8.674;2023-05-13T04:40:54;94026.00;;;7.00
10598;BMP180;5346;48.766;8.674;2023-05-13T04:43:28;93993.00;;;7.00
10598;BMP180;5346;48.766;8.674;2023-05-13T04:46:02;94008.00;;;7.10
10598;BMP180;5346;48.766;8.674;2023-05-13T04:48:36;94034.00;;;7.10
10598;BMP180;5346;48.766;8.674;2023-05-13T04:51:04;94025.00;;;7.20
10598;BMP180;5346;48.766;8.674;2023-05-13T04:53:38;94066.00;;;7.40
10598;BMP180;5346;48.766;8.674;2023-05-13T04:56:05;94065.00;;;7.40
10598;BMP180;5346;48.766;8.674;2023-05-13T04:58:39;94050.00;;;7.50
10598;BMP180;5346;48.766;8.674;2023-05-13T05:01:13;94060.00;;;7.60
10598;BMP180;5346;48.766;8.674;2023-05-13T05:03:53;94064.00;;;7.60
10598;BMP180;5346;48.766;8.674;2023-05-13T05:06:21;94067.00;;;7.70
10598;BMP180;5346;48.766;8.674;2023-05-13T05:08:54;94070.00;;;7.80
10598;BMP180;5346;48.766;8.674;2023-05-13T05:11:21;94028.00;;;7.90
10598;BMP180;5346;48.766;8.674;2023-05-13T05:13:55;94066.00;;;8.00
10598;BMP180;5346;48.766;8.674;2023-05-13T05:16:23;94080.00;;;8.00
10598;BMP180;5346;48.766;8.674;2023-05-13T05:18:56;94069.00;;;8.10
10598;BMP180;5346;48.766;8.674;2023-05-13T05:21:23;94068.00;;;8.00
10598;BMP180;5346;48.766;8.674;2023-05-13T05:23:57;94065.00;;;8.00
10598;BMP180;5346;48.766;8.674;2023-05-13T05:26:25;94053.00;;;8.20
10598;BMP180;5346;48.766;8.674;2023-05-13T05:28:58;94048.00;;;8.50
10598;BMP180;5346;48.766;8.674;2023-05-13T05:31:25;94071.00;;;8.50
10598;BMP180;5346;48.766;8.674;2023-05-13T05:33:59;94078.00;;;8.70
10598;BMP180;5346;48.766;8.674;2023-05-13T05:36:33;94080.00;;;8.70
10598;BMP180;5346;48.766;8.674;2023-05-13T05:39:07;94089.00;;;8.90
10598;BMP180;5346;48.766;8.674;2023-05-13T05:41:41;94077.00;;;9.00
10598;BMP180;5346;48.766;8.674;2023-05-13T05:44:15;94093.00;;;9.00
10598;BMP180;5346;48.766;8.674;2023-05-13T05:46:42;94039.00;;;9.20
10598;BMP180;5346;48.766;8.674;2023-05-13T05:49:16;94086.00;;;9.40
10598;BMP180;5346;48.766;8.674;2023-05-13T05:51:50;94059.00;;;9.40
10598;BMP180;5346;48.766;8.674;2023-05-13T05:54:17;94078.00;;;8.90
10598;BMP180;5346;48.766;8.674;2023-05-13T05:56:51;94063.00;;;9.10
10598;BMP180;5346;48.766;8.674;2023-05-13T05:59:18;94031.00;;;9.00
10598;BMP180;5346;48.766;8.674;2023-05-13T06:01:52;94054.00;;;9.10
10598;BMP180;5346;48.766;8.674;2023-05-13T06:04:33;94088.00;;;9.30
10598;BMP180;5346;48.766;8.674;2023-05-13T06:07:01;94034.00;;;9.30
10598;BMP180;5346;48.766;8.674;2023-05-13T06:09:36;94104.00;;;9.30
10598;BMP180;5346;48.766;8.674;2023-05-13T06:12:10;94084.00;;;9.40
10598;BMP180;5346;48.766;8.674;2023-05-13T06:14:44;94069.00;;;9.50
10598;BMP180;5346;48.766;8.674;2023-05-13T06:17:12;94105.00;;;9.30
10598;BMP180;5346;48.766;8.674;2023-05-13T06:19:47;94089.00;;;9.30
10598;BMP180;5346;48.766;8.674;2023-05-13T06:22:15;94064.00;;;9.30
10598;BMP180;5346;48.766;8.674;2023-05-13T06:24:48;94063.00;;;9.60
10598;BMP180;5346;48.766;8.674;2023-05-13T06:27:22;94081.00;;;9.70
10598;BMP180;5346;48.766;8.674;2023-05-13T06:29:55;94075.00;;;9.70
10598;BMP180;5346;48.766;8.674;2023-05-13T06:32:29;94101.00;;;9.80
10598;BMP180;5346;48.766;8.674;2023-05-13T06:35:08;94084.00;;;9.70
10598;BMP180;5346;48.766;8.674;2023-05-13T06:37:43;94105.00;;;10.10
10598;BMP180;5346;48.766;8.674;2023-05-13T06:40:16;94111.00;;;10.10
10598;BMP180;5346;48.766;8.674;2023-05-13T06:42:45;94081.00;;;10.10
10598;BMP180;5346;48.766;8.674;2023-05-13T06:45:18;94095.00;;;10.30
10598;BMP180;5346;48.766;8.674;2023-05-13T06:47:51;94113.00;;;10.30
10598;BMP180;5346;48.766;8.674;2023-05-13T06:50:26;94110.00;;;10.60
10598;BMP180;5346;48.766;8.674;2023-05-13T06:52:53;94113.00;;;10.30
10598;BMP180;5346;48.766;8.674;2023-05-13T06:55:27;94110.00;;;10.30
10598;BMP180;5346;48.766;8.674;2023-05-13T06:57:54;94042.00;;;10.50
10598;BMP180;5346;48.766;8.674;2023-05-13T07:00:28;94103.00;;;10.50
10598;BMP180;5346;48.766;8.674;2023-05-13T07:03:08;94110.00;;;10.50
10598;BMP180;5346;48.766;8.674;2023-05-13T07:05:54;94105.00;;;10.80
10598;BMP180;5346;48.766;8.674;2023-05-13T07:08:22;94080.00;;;10.90
10598;BMP180;5346;48.766;8.674;2023-05-13T07:10:56;94112.00;;;11.30
10598;BMP180;5346;48.766;8.674;2023-05-13T07:13:23;94108.00;;;11.40
10598;BMP180;5346;48.766;8.674;2023-05-13T07:15:58;94115.00;;;11.30
10598;BMP180;5346;48.766;8.674;2023-05-13T07:18:25;94123.00;;;11.40
10598;BMP180;5346;48.766;8.674;2023-05-13T07:21:00;94108.00;;;11.50
10598;BMP180;5346;48.766;8.674;2023-05-13T07:23:28;94108.00;;;11.50
10598;BMP180;5346;48.766;8.674;2023-05-13T07:26:01;94121.00;;;11.40
10598;BMP180;5346;48.766;8.674;2023-05-13T07:28:30;94089.00;;;11.40
10598;BMP180;5346;48.766;8.674;2023-05-13T07:31:04;94025.00;;;12.00
10598;BMP180;5346;48.766;8.674;2023-05-13T07:33:31;94097.00;;;12.50
10598;BMP180;5346;48.766;8.674;2023-05-13T07:36:06;94084.00;;;12.70
10598;BMP180;5346;48.766;8.674;2023-05-13T07:38:36;94120.00;;;12.80
10598;BMP180;5346;48.766;8.674;2023-05-13T07:41:09;94120.00;;;12.60
10598;BMP180;5346;48.766;8.674;2023-05-13T07:43:43;94125.00;;;12.30
10598;BMP180;5346;48.766;8.674;2023-05-13T07:46:18;94098.00;;;12.60
10598;BMP180;5346;48.766;8.674;2023-05-13T07:48:48;94080.00;;;12.50
10598;BMP180;5346;48.766;8.674;2023-05-13T07:51:22;94125.00;;;12.40
10598;BMP180;5346;48.766;8.674;2023-05-13T07:53:50;94116.00;;;12.10
10598;BMP180;5346;48.766;8.674;2023-05-13T07:56:25;94122.00;;;12.30
10598;BMP180;5346;48.766;8.674;2023-05-13T07:58:53;94126.00;;;12.30
10598;BMP180;5346;48.766;8.674;2023-05-13T08:01:29;94122.00;;;12.50
10598;BMP180;5346;48.766;8.674;2023-05-13T08:04:10;94131.00;;;12.30
10598;BMP180;5346;48.766;8.674;2023-05-13T08:06:44;94086.00;;;12.40
10598;BMP180;5346;48.766;8.674;2023-05-13T08:09:11;94132.00;;;12.30
10598;BMP180;5346;48.766;8.674;2023-05-13T08:11:47;94129.00;;;12.10
10598;BMP180;5346;48.766;8.674;2023-05-13T08:14:14;94112.00;;;12.00
10598;BMP180;5346;48.766;8.674;2023-05-13T08:16:42;94103.00;;;12.40
10598;BMP180;5346;48.766;8.674;2023-05-13T08:19:16;94091.00;;;12.50
10598;BMP180;5346;48.766;8.674;2023-05-13T08:21:43;94100.00;;;12.40
10598;BMP180;5346;48.766;8.674;2023-05-13T08:24:16;94126.00;;;12.30
10598;BMP180;5346;48.766;8.674;2023-05-13T08:26:43;94125.00;;;12.20
10598;BMP180;5346;48.766;8.674;2023-05-13T08:29:17;94128.00;;;12.30
10598;BMP180;5346;48.766;8.674;2023-05-13T08:31:50;94144.00;;;12.30
10598;BMP180;5346;48.766;8.674;2023-05-13T08:34:25;94101.00;;;12.20
10598;BMP180;5346;48.766;8.674;2023-05-13T08:36:52;94132.00;;;12.20
10598;BMP180;5346;48.766;8.674;2023-05-13T08:39:27;94113.00;;;12.20
10598;BMP180;5346;48.766;8.674;2023-05-13T08:41:56;94103.00;;;12.20
10598;BMP180;5346;48.766;8.674;2023-05-13T08:44:38;94138.00;;;12.30
10598;BMP180;5346;48.766;8.674;2023-05-13T08:50:19;94145.00;;;12.60
10598;BMP180;5346;48.766;8.674;2023-05-13T08:52:53;94101.00;;;13.00
10598;BMP180;5346;48.766;8.674;2023-05-13T08:55:27;94140.00;;;12.90
10598;BMP180;5346;48.766;8.674;2023-05-13T08:57:55;94145.00;;;12.90
10598;BMP180;5346;48.766;8.674;2023-05-13T09:00:23;94110.00;;;12.90
10598;BMP180;5346;48.766;8.674;2023-05-13T09:02:56;94146.00;;;12.50
10598;BMP180;5346;48.766;8.674;2023-05-13T09:05:29;94077.00;;;12.70
10598;BMP180;5346;48.766;8.674;2023-05-13T09:08:08;94146.00;;;13.20
10598;BMP180;5346;48.766;8.674;2023-05-13T09:10:37;94144.00;;;13.20
10598;BMP180;5346;48.766;8.674;2023-05-13T09:13:12;94156.00;;;13.40
10598;BMP180;5346;48.766;8.674;2023-05-13T09:15:45;94111.00;;;13.20
10598;BMP180;5346;48.766;8.674;2023-05-13T09:18:19;94143.00;;;13.20
10598;BMP180;5346;48.766;8.674;2023-05-13T09:21:26;94159.00;;;12.90
10598;BMP180;5346;48.766;8.674;2023-05-13T09:24:08;94152.00;;;12.80
10598;BMP180;5346;48.766;8.674;2023-05-13T09:26:40;94153.00;;;12.90
10598;BMP180;5346;48.766;8.674;2023-05-13T09:29:25;94153.00;;;13.00
10598;BMP180;5346;48.766;8.674;2023-05-13T09:32:05;94163.00;;;13.40
10598;BMP180;5346;48.766;8.674;2023-05-13T09:34:46;94140.00;;;13.00
10598;BMP180;5346;48.766;8.674;2023-05-13T09:37:22;94163.00;;;12.80
10598;BMP180;5346;48.766;8.674;2023-05-13T09:39:56;94137.00;;;12.70
10598;BMP180;5346;48.766;8.674;2023-05-13T09:42:33;94154.00;;;13.10
10598;BMP180;5346;48.766;8.674;2023-05-13T09:45:04;94164.00;;;13.10
10598;BMP180;5346;48.766;8.674;2023-05-13T09:47:40;94164.00;;;12.80
10598;BMP180;5346;48.766;8.674;2023-05-13T09:50:10;94144.00;;;12.80
10598;BMP180;5346;48.766;8.674;2023-05-13T09:52:44;94166.00;;;12.90
10598;BMP180;5346;48.766;8.674;2023-05-13T09:55:21;94171.00;;;12.80
10598;BMP180;5346;48.766;8.674;2023-05-13T09:57:52;94138.00;;;12.50
10598;BMP180;5346;48.766;8.674;2023-05-13T10:00:26;94182.00;;;12.60
10598;BMP180;5346;48.766;8.674;2023-05-13T10:03:13;94142.00;;;12.60
10598;BMP180;5346;48.766;8.674;2023-05-13T10:05:48;94189.00;;;12.30
10598;BMP180;5346;48.766;8.674;2023-05-13T10:08:20;94138.00;;;12.60
10598;BMP180;5346;48.766;8.674;2023-05-13T10:10:55;94189.00;;;12.50
10598;BMP180;5346;48.766;8.674;2023-05-13T10:13:24;94185.00;;;12.50
10598;BMP180;5346;48.766;8.674;2023-05-13T10:15:58;94186.00;;;12.50
10598;BMP180;5346;48.766;8.674;2023-05-13T10:18:26;94173.00;;;12.70
10598;BMP180;5346;48.766;8.674;2023-05-13T10:21:02;94182.00;;;12.80
10598;BMP180;5346;48.766;8.674;2023-05-13T10:23:31;94188.00;;;12.90
10598;BMP180;5346;48.766;8.674;2023-05-13T10:26:07;94183.00;;;12.80
10598;BMP180;5346;48.766;8.674;2023-05-13T10:28:46;94168.00;;;13.00
10598;BMP180;5346;48.766;8.674;2023-05-13T10:31:15;94183.00;;;13.30
10598;BMP180;5346;48.766;8.674;2023-05-13T10:33:51;94177.00;;;13.40
10598;BMP180;5346;48.766;8.674;2023-05-13T10:37:05;94178.00;;;13.60
10598;BMP180;5346;48.766;8.674;2023-05-13T10:42:39;94183.00;;;13.50
10598;BMP180;5346;48.766;8.674;2023-05-13T10:45:16;94136.00;;;13.70
10598;BMP180;5346;48.766;8.674;2023-05-13T10:47:43;94183.00;;;13.70
10598;BMP180;5346;48.766;8.674;2023-05-13T10:50:24;94184.00;;;13.80
10598;BMP180;5346;48.766;8.674;2023-05-13T10:52:56;94180.00;;;13.90
10598;BMP180;5346;48.766;8.674;2023-05-13T10:55:42;94164.00;;;13.90
10598;BMP180;5346;48.766;8.674;2023-05-13T10:58:17;94176.00;;;14.50
10598;BMP180;5346;48.766;8.674;2023-05-13T11:01:20;94142.00;;;14.60
10598;BMP180;5346;48.766;8.674;2023-05-13T11:04:03;94169.00;;;15.00
10598;BMP180;5346;48.766;8.674;2023-05-13T11:06:47;94111.00;;;14.70
10598;BMP180;5346;48.766;8.674;2023-05-13T11:09:30;94169.00;;;15.00
10598;BMP180;5346;48.766;8.674;2023-05-13T11:11:58;94176.00;;;14.90
10598;BMP180;5346;48.766;8.674;2023-05-13T11:14:34;94159.00;;;15.50
10598;BMP180;5346;48.766;8.674;2023-05-13T11:17:11;94163.00;;;15.50
10598;BMP180;5346;48.766;8.674;2023-05-13T11:19:48;94176.00;;;15.90
10598;BMP180;5346;48.766;8.674;2023-05-13T11:22:21;94117.00;;;15.90
10598;BMP180;5346;48.766;8.674;2023-05-13T11:25:09;94161.00;;;15.20
10598;BMP180;5346;48.766;8.674;2023-05-13T11:27:41;94179.00;;;14.70
10598;BMP180;5346;48.766;8.674;2023-05-13T11:30:25;94179.00;;;14.50
10598;BMP180;5346;48.766;8.674;2023-05-13T11:32:57;94187.00;;;14.60
10598;BMP180;5346;48.766;8.674;2023-05-13T11:35:32;94143.00;;;14.70
10598;BMP180;5346;48.766;8.674;2023-05-13T11:38:02;94185.00;;;15.30
10598;BMP180;5346;48.766;8.674;2023-05-13T11:40:35;94166.00;;;14.90
10598;BMP180;5346;48.766;8.674;2023-05-13T11:43:19;94148.00;;;14.70
10598;BMP180;5346;48.766;8.674;2023-05-13T11:45:52;94191.00;;;14.60
10598;BMP180;5346;48.766;8.674;2023-05-13T11:48:25;94172.00;;;14.70
10598;BMP180;5346;48.766;8.674;2023-05-13T11:50:59;94167.00;;;14.20
10598;BMP180;5346;48.766;8.674;2023-05-13T11:53:28;94198.00;;;14.00
10598;BMP180;5346;48.766;8.674;2023-05-13T11:56:11;94188.00;;;14.10
10598;BMP180;5346;48.766;8.674;2023-05-13T11:58:45;94173.00;;;14.40
10598;BMP180;5346;48.766;8.674;2023-05-13T12:01:20;94183.00;;;14.80
10598;BMP180;5346;48.766;8.674;2023-05-13T12:04:00;94133.00;;;15.70
10598;BMP180;5346;48.766;8.674;2023-05-13T12:06:42;94163.00;;;16.80
10598;BMP180;5346;48.766;8.674;2023-05-13T12:09:16;94160.00;;;17.90
10598;BMP180;5346;48.766;8.674;2023-05-13T12:11:52;94155.00;;;17.60
10598;BMP180;5346;48.766;8.674;2023-05-13T12:14:25;94177.00;;;16.90
10598;BMP180;5346;48.766;8.674;2023-05-13T12:16:55;94155.00;;;16.40
10598;BMP180;5346;48.766;8.674;2023-05-13T12:19:23;94132.00;;;16.40
10598;BMP180;5346;48.766;8.674;2023-05-13T12:21:58;94187.00;;;16.30
10598;BMP180;5346;48.766;8.674;2023-05-13T12:24:25;94172.00;;;15.90
10598;BMP180;5346;48.766;8.674;2023-05-13T12:27:06;94197.00;;;15.70
10598;BMP180;5346;48.766;8.674;2023-05-13T12:29:41;94179.00;;;15.80
10598;BMP180;5346;48.766;8.674;2023-05-13T12:32:15;94161.00;;;16.10
10598;BMP180;5346;48.766;8.674;2023-05-13T12:34:48;94146.00;;;16.70
10598;BMP180;5346;48.766;8.674;2023-05-13T12:37:23;94148.00;;;17.20
10598;BMP180;5346;48.766;8.674;2023-05-13T12:40:11;94153.00;;;17.30
10598;BMP180;5346;48.766;8.674;2023-05-13T12:42:45;94148.00;;;17.20
10598;BMP180;5346;48.766;8.674;2023-05-13T12:45:19;94177.00;;;16.40
10598;BMP180;5346;48.766;8.674;2023-05-13T12:47:51;94189.00;;;16.00
10598;BMP180;5346;48.766;8.674;2023-05-13T12:50:26;94177.00;;;16.40
10598;BMP180;5346;48.766;8.674;2023-05-13T12:53:01;94145.00;;;16.80
10598;BMP180;5346;48.766;8.674;2023-05-13T12:55:34;94153.00;;;16.40
10598;BMP180;5346;48.766;8.674;2023-05-13T12:58:11;94165.00;;;16.70
10598;BMP180;5346;48.766;8.674;2023-05-13T13:00:39;94172.00;;;16.90
10598;BMP180;5346;48.766;8.674;2023-05-13T13:03:26;94162.00;;;17.30
10598;BMP180;5346;48.766;8.674;2023-05-13T13:06:07;94170.00;;;17.30
10598;BMP180;5346;48.766;8.674;2023-05-13T13:08:42;94142.00;;;18.10
10598;BMP180;5346;48.766;8.674;2023-05-13T13:11:22;94142.00;;;17.60
10598;BMP180;5346;48.766;8.674;2023-05-13T13:13:55;94165.00;;;18.10
10598;BMP180;5346;48.766;8.674;2023-05-13T13:16:22;94191.00;;;17.90
10598;BMP180;5346;48.766;8.674;2023-05-13T13:18:56;94184.00;;;17.30
10598;BMP180;5346;48.766;8.674;2023-05-13T13:21:27;94152.00;;;16.40
10598;BMP180;5346;48.766;8.674;2023-05-13T13:24:01;94183.00;;;15.80
10598;BMP180;5346;48.766;8.674;2023-05-13T13:26:28;94158.00;;;16.30
10598;BMP180;5346;48.766;8.674;2023-05-13T13:29:05;94154.00;;;16.70
10598;BMP180;5346;48.766;8.674;2023-05-13T13:31:38;94137.00;;;17.40
10598;BMP180;5346;48.766;8.674;2023-05-13T13:34:13;94156.00;;;17.70
10598;BMP180;5346;48.766;8.674;2023-05-13T13:36:46;94142.00;;;17.90
10598;BMP180;5346;48.766;8.674;2023-05-13T13:39:21;94152.00;;;17.30
10598;BMP180;5346;48.766;8.674;2023-05-13T13:41:48;94160.00;;;16.90
10598;BMP180;5346;48.766;8.674;2023-05-13T13:44:22;94155.00;;;16.60
10598;BMP180;5346;48.766;8.674;2023-05-13T13:46:49;94131.00;;;16.10
10598;BMP180;5346;48.766;8.674;2023-05-13T13:49:22;94157.00;;;15.50
10598;BMP180;5346;48.766;8.674;2023-05-13T13:52:05;94165.00;;;15.00
10598;BMP180;5346;48.766;8.674;2023-05-13T13:54:32;94147.00;;;14.40
10598;BMP180;5346;48.766;8.674;2023-05-13T13:57:06;94128.00;;;14.20
10598;BMP180;5346;48.766;8.674;2023-05-13T13:59:33;94162.00;;;14.10
10598;BMP180;5346;48.766;8.674;2023-05-13T14:02:16;94191.00;;;14.50
10598;BMP180;5346;48.766;8.674;2023-05-13T14:04:57;94166.00;;;14.50
10598;BMP180;5346;48.766;8.674;2023-05-13T14:07:30;94169.00;;;14.90
10598;BMP180;5346;48.766;8.674;2023-05-13T14:09:58;94173.00;;;14.90
10598;BMP180;5346;48.766;8.674;2023-05-13T14:12:31;94170.00;;;15.10
10598;BMP180;5346;48.766;8.674;2023-05-13T14:14:59;94171.00;;;15.30
10598;BMP180;5346;48.766;8.674;2023-05-13T14:17:33;94170.00;;;14.90
10598;BMP180;5346;48.766;8.674;2023-05-13T14:20:01;94170.00;;;14.00
10598;BMP180;5346;48.766;8.674;2023-05-13T14:22:35;94176.00;;;13.80
10598;BMP180;5346;48.766;8.674;2023-05-13T14:25:09;94170.00;;;13.80
10598;BMP180;5346;48.766;8.674;2023-05-13T14:27:43;94159.00;;;13.90
10598;BMP180;5346;48.766;8.674;2023-05-13T14:30:11;94165.00;;;14.20
10598;BMP180;5346;48.766;8.674;2023-05-13T14:32:47;94133.00;;;14.30
10598;BMP180;5346;48.766;8.674;2023-05-13T14:35:14;94067.00;;;15.40
10598;BMP180;5346;48.766;8.674;2023-05-13T14:37:52;94138.00;;;16.30
10598;BMP180;5346;48.766;8.674;2023-05-13T14:40:19;94120.00;;;17.00
10598;BMP180;5346;48.766;8.674;2023-05-13T14:42:54;94144.00;;;16.80
10598;BMP180;5346;48.766;8.674;2023-05-13T14:45:23;94119.00;;;16.50
10598;BMP180;5346;48.766;8.674;2023-05-13T14:47:57;94147.00;;;16.20
10598;BMP180;5346;48.766;8.674;2023-05-13T14:50:25;94152.00;;;15.40
10598;BMP180;5346;48.766;8.674;2023-05-13T14:52:58;94142.00;;;15.20
10598;BMP180;5346;48.766;8.674;2023-05-13T14:55:33;94137.00;;;14.90
10598;BMP180;5346;48.766;8.674;2023-05-13T14:58:07;94110.00;;;15.00
10598;BMP180;5346;48.766;8.674;2023-05-13T15:00:41;94135.00;;;15.10
10598;BMP180;5346;48.766;8.674;2023-05-13T15:03:22;94092.00;;;15.30
10598;BMP180;5346;48.766;8.674;2023-05-13T15:05:58;94128.00;;;15.30
10598;BMP180;5346;48.766;8.674;2023-05-13T15:08:25;94137.00;;;15.60
10598;BMP180;5346;48.766;8.674;2023-05-13T15:10:59;94101.00;;;15.70
10598;BMP180;5346;48.766;8.674;2023-05-13T15:13:28;94135.00;;;15.70